sensor_id;sensor_type;location;lat;lon;timestamp;pressure;altitude;pressure_sealevel;temperature;humidity
10466;BME280;5280;42.600;23.556;2023-11-21T00:00:50;93222.28;;;5.35;100.00
10466;BME280;5280;42.600;23.556;2023-11-21T00:03:18;93226.41;;;5.39;100.00
10466;BME280;5280;42.600;23.556;2023-11-21T00:05:45;93226.31;;;5.40;100.00
10466;BME280;5280;42.600;23.556;2023-11-21T00:08:12;93212.84;;;5.32;100.00
10466;BME280;5280;42.600;23.556;2023-11-21T00:10:38;93229.56;;;5.44;100.00
10466;BME280;5280;42.600;23.556;2023-11-21T00:13:05;93217.59;;;5.40;100.00
10466;BME280;5280;42.600;23.556;2023-11-21T00:15:31;93230.13;;;5.49;100.00
10466;BME280;5280;42.600;23.556;2023-11-21T00:18:02;93232.03;;;5.47;100.00
10466;BME280;5280;42.600;23.556;2023-11-21T00:20:31;93231.19;;;5.46;100.00
10466;BME280;5280;42.600;23.556;2023-11-21T00:22:57;93228.47;;;5.48;100.00
10466;BME280;5280;42.600;23.556;2023-11-21T00:25:25;93233.72;;;5.48;100.00
10466;BME280;5280;42.600;23.556;2023-11-21T00:27:51;93230.13;;;5.49;100.00
10466;BME280;5280;42.600;23.556;2023-11-21T00:30:19;93238.66;;;5.52;100.00
10466;BME280;5280;42.600;23.556;2023-11-21T00:32:47;93207.41;;;5.35;100.00
10466;BME280;5280;42.600;23.556;2023-11-21T00:35:14;93222.13;;;5.38;100.00
10466;BME280;5280;42.600;23.556;2023-11-21T00:37:43;93207.69;;;5.45;100.00
10466;BME280;5280;42.600;23.556;2023-11-21T00:40:11;93216.28;;;5.47;100.00
10466;BME280;5280;42.600;23.556;2023-11-21T00:42:40;93215.25;;;5.49;100.00
10466;BME280;5280;42.600;23.556;2023-11-21T00:45:08;93212.47;;;5.52;100.00
10466;BME280;5280;42.600;23.556;2023-11-21T00:47:35;93223.56;;;5.56;100.00
10466;BME280;5280;42.600;23.556;2023-11-21T00:50:03;93210.56;;;5.54;100.00
10466;BME280;5280;42.600;23.556;2023-11-21T00:52:31;93220.03;;;5.57;100.00
10466;BME280;5280;42.600;23.556;2023-11-21T00:55:00;93204.13;;;5.46;100.00
10466;BME280;5280;42.600;23.556;2023-11-21T00:57:28;93220.97;;;5.56;100.00
10466;BME280;5280;42.600;23.556;2023-11-21T00:59:55;93222.81;;;5.54;100.00
10466;BME280;5280;42.600;23.556;2023-11-21T01:02:22;93171.31;;;5.26;100.00
10466;BME280;5280;42.600;23.556;2023-11-21T01:04:48;93223.50;;;5.57;100.00
10466;BME280;5280;42.600;23.556;2023-11-21T01:07:15;93220.88;;;5.57;100.00
10466;BME280;5280;42.600;23.556;2023-11-21T01:09:42;93215.50;;;5.59;100.00
10466;BME280;5280;42.600;23.556;2023-11-21T01:12:11;93168.78;;;5.25;100.00
10466;BME280;5280;42.600;23.556;2023-11-21T01:14:38;93182.31;;;5.45;100.00
10466;BME280;5280;42.600;23.556;2023-11-21T01:17:05;93206.06;;;5.56;100.00
10466;BME280;5280;42.600;23.556;2023-11-21T01:19:32;93208.78;;;5.55;100.00
10466;BME280;5280;42.600;23.556;2023-11-21T01:21:59;93211.50;;;5.53;100.00
10466;BME280;5280;42.600;23.556;2023-11-21T01:24:26;93208.16;;;5.51;100.00
10466;BME280;5280;42.600;23.556;2023-11-21T01:26:52;93191.31;;;5.41;100.00
10466;BME280;5280;42.600;23.556;2023-11-21T01:29:21;93178.03;;;5.30;100.00
10466;BME280;5280;42.600;23.556;2023-11-21T01:31:48;93174.00;;;5.25;100.00
10466;BME280;5280;42.600;23.556;2023-11-21T01:34:14;93208.53;;;5.45;100.00
10466;BME280;5280;42.600;23.556;2023-11-21T01:36:41;93219.38;;;5.39;100.00
10466;BME280;5280;42.600;23.556;2023-11-21T01:39:08;93204.16;;;5.32;100.00
10466;BME280;5280;42.600;23.556;2023-11-21T01:41:39;93207.78;;;5.29;100.00
10466;BME280;5280;42.600;23.556;2023-11-21T01:44:06;93127.22;;;4.78;100.00
10466;BME280;5280;42.600;23.556;2023-11-21T01:46:36;93177.59;;;5.09;100.00
10466;BME280;5280;42.600;23.556;2023-11-21T01:49:03;93178.06;;;5.02;100.00
10466;BME280;5280;42.600;23.556;2023-11-21T01:51:30;93203.97;;;5.20;100.00
10466;BME280;5280;42.600;23.556;2023-11-21T01:53:58;93216.13;;;5.22;100.00
10466;BME280;5280;42.600;23.556;2023-11-21T01:56:25;93214.44;;;5.20;100.00
10466;BME280;5280;42.600;23.556;2023-11-21T01:58:52;93194.06;;;5.11;100.00
10466;BME280;5280;42.600;23.556;2023-11-21T02:01:19;93193.56;;;5.05;100.00
10466;BME280;5280;42.600;23.556;2023-11-21T02:03:47;93188.91;;;5.10;100.00
10466;BME280;5280;42.600;23.556;2023-11-21T02:06:14;93145.41;;;4.79;100.00
10466;BME280;5280;42.600;23.556;2023-11-21T02:08:41;93150.38;;;4.84;100.00
10466;BME280;5280;42.600;23.556;2023-11-21T02:11:09;93181.34;;;5.05;100.00
10466;BME280;5280;42.600;23.556;2023-11-21T02:13:38;93192.56;;;5.07;100.00
10466;BME280;5280;42.600;23.556;2023-11-21T02:16:09;93166.56;;;4.90;100.00
10466;BME280;5280;42.600;23.556;2023-11-21T02:18:36;93151.22;;;4.84;100.00
10466;BME280;5280;42.600;23.556;2023-11-21T02:21:05;93194.44;;;5.05;100.00
10466;BME280;5280;42.600;23.556;2023-11-21T02:23:34;93187.63;;;5.03;100.00
10466;BME280;5280;42.600;23.556;2023-11-21T02:26:01;93168.97;;;4.93;100.00
10466;BME280;5280;42.600;23.556;2023-11-21T02:28:32;93166.47;;;4.92;100.00
10466;BME280;5280;42.600;23.556;2023-11-21T02:30:59;93181.81;;;4.98;100.00
10466;BME280;5280;42.600;23.556;2023-11-21T02:33:28;93197.53;;;4.98;100.00
10466;BME280;5280;42.600;23.556;2023-11-21T02:35:55;93201.25;;;4.94;100.00
10466;BME280;5280;42.600;23.556;2023-11-21T02:38:22;93197.78;;;4.93;100.00
10466;BME280;5280;42.600;23.556;2023-11-21T02:40:50;93200.41;;;4.93;100.00
10466;BME280;5280;42.600;23.556;2023-11-21T02:43:17;93194.59;;;4.88;100.00
10466;BME280;5280;42.600;23.556;2023-11-21T02:45:44;93196.84;;;4.94;100.00
10466;BME280;5280;42.600;23.556;2023-11-21T02:48:11;93159.72;;;4.73;100.00
10466;BME280;5280;42.600;23.556;2023-11-21T02:50:37;93195.16;;;4.93;100.00
10466;BME280;5280;42.600;23.556;2023-11-21T02:53:04;93176.66;;;4.82;100.00
10466;BME280;5280;42.600;23.556;2023-11-21T02:55:32;93193.50;;;4.92;100.00
10466;BME280;5280;42.600;23.556;2023-11-21T02:58:02;93192.66;;;4.92;100.00
10466;BME280;5280;42.600;23.556;2023-11-21T03:00:30;93191.81;;;4.91;100.00
10466;BME280;5280;42.600;23.556;2023-11-21T03:03:00;93189.34;;;4.88;100.00
10466;BME280;5280;42.600;23.556;2023-11-21T03:05:27;93186.94;;;4.85;100.00
10466;BME280;5280;42.600;23.556;2023-11-21T03:07:55;93181.06;;;4.82;100.00
10466;BME280;5280;42.600;23.556;2023-11-21T03:10:22;93202.56;;;4.87;100.00
10466;BME280;5280;42.600;23.556;2023-11-21T03:12:48;93176.09;;;4.77;100.00
10466;BME280;5280;42.600;23.556;2023-11-21T03:15:17;93108.78;;;4.37;100.00
10466;BME280;5280;42.600;23.556;2023-11-21T03:17:43;93185.38;;;4.83;100.00
10466;BME280;5280;42.600;23.556;2023-11-21T03:20:11;93090.84;;;4.30;100.00
10466;BME280;5280;42.600;23.556;2023-11-21T03:22:39;93179.16;;;4.84;100.00
10466;BME280;5280;42.600;23.556;2023-11-21T03:25:06;93186.09;;;4.85;100.00
10466;BME280;5280;42.600;23.556;2023-11-21T03:27:36;93182.84;;;4.81;100.00
10466;BME280;5280;42.600;23.556;2023-11-21T03:30:08;93185.66;;;4.78;100.00
10466;BME280;5280;42.600;23.556;2023-11-21T03:32:37;93184.97;;;4.74;100.00
10466;BME280;5280;42.600;23.556;2023-11-21T03:35:05;93188.50;;;4.73;100.00
10466;BME280;5280;42.600;23.556;2023-11-21T03:37:31;93192.94;;;4.73;100.00
10466;BME280;5280;42.600;23.556;2023-11-21T03:39:58;93195.63;;;4.71;100.00
10466;BME280;5280;42.600;23.556;2023-11-21T03:42:25;93196.56;;;4.70;100.00
10466;BME280;5280;42.600;23.556;2023-11-21T03:44:52;93208.81;;;4.70;100.00
10466;BME280;5280;42.600;23.556;2023-11-21T03:47:19;93194.41;;;4.63;100.00
10466;BME280;5280;42.600;23.556;2023-11-21T03:49:47;93209.94;;;4.66;100.00
10466;BME280;5280;42.600;23.556;2023-11-21T03:52:14;93204.69;;;4.66;100.00
10466;BME280;5280;42.600;23.556;2023-11-21T03:54:41;93205.69;;;4.63;100.00
10466;BME280;5280;42.600;23.556;2023-11-21T03:57:10;93157.84;;;4.33;100.00
10466;BME280;5280;42.600;23.556;2023-11-21T03:59:39;93191.97;;;4.60;100.00
10466;BME280;5280;42.600;23.556;2023-11-21T04:02:06;93191.22;;;4.58;100.00
10466;BME280;5280;42.600;23.556;2023-11-21T04:04:33;93173.81;;;4.43;100.00
10466;BME280;5280;42.600;23.556;2023-11-21T04:07:02;93177.94;;;4.47;100.00
10466;BME280;5280;42.600;23.556;2023-11-21T04:09:28;93173.44;;;4.49;100.00
10466;BME280;5280;42.600;23.556;2023-11-21T04:11:55;93166.69;;;4.45;100.00
10466;BME280;5280;42.600;23.556;2023-11-21T04:14:22;93158.66;;;4.33;100.00
10466;BME280;5280;42.600;23.556;2023-11-21T04:16:49;93177.28;;;4.43;100.00
10466;BME280;5280;42.600;23.556;2023-11-21T04:19:16;93160.34;;;4.34;100.00
10466;BME280;5280;42.600;23.556;2023-11-21T04:21:43;93079.56;;;3.86;100.00
10466;BME280;5280;42.600;23.556;2023-11-21T04:24:11;93162.03;;;4.36;100.00
10466;BME280;5280;42.600;23.556;2023-11-21T04:26:38;93153.34;;;4.35;100.00
10466;BME280;5280;42.600;23.556;2023-11-21T04:29:05;93173.91;;;4.41;100.00
10466;BME280;5280;42.600;23.556;2023-11-21T04:31:34;93161.19;;;4.35;100.00
10466;BME280;5280;42.600;23.556;2023-11-21T04:34:01;93173.81;;;4.43;100.00
10466;BME280;5280;42.600;23.556;2023-11-21T04:36:29;93168.94;;;4.37;100.00
10466;BME280;5280;42.600;23.556;2023-11-21T04:38:57;93153.22;;;4.22;100.00
10466;BME280;5280;42.600;23.556;2023-11-21T04:41:25;93143.50;;;4.24;100.00
10466;BME280;5280;42.600;23.556;2023-11-21T04:43:52;93172.97;;;4.42;100.00
10466;BME280;5280;42.600;23.556;2023-11-21T04:46:19;93165.97;;;4.43;100.00
10466;BME280;5280;42.600;23.556;2023-11-21T04:48:46;93165.78;;;4.46;100.00
10466;BME280;5280;42.600;23.556;2023-11-21T04:51:13;93166.53;;;4.48;100.00
10466;BME280;5280;42.600;23.556;2023-11-21T04:53:40;93161.66;;;4.42;100.00
10466;BME280;5280;42.600;23.556;2023-11-21T04:56:07;93163.09;;;4.47;100.00
10466;BME280;5280;42.600;23.556;2023-11-21T04:58:35;93123.97;;;4.16;100.00
10466;BME280;5280;42.600;23.556;2023-11-21T05:01:02;93108.63;;;4.10;100.00
10466;BME280;5280;42.600;23.556;2023-11-21T05:03:29;93134.53;;;4.28;100.00
10466;BME280;5280;42.600;23.556;2023-11-21T05:05:56;93168.47;;;4.44;100.00
10466;BME280;5280;42.600;23.556;2023-11-21T05:08:23;93177.00;;;4.48;100.00
10466;BME280;5280;42.600;23.556;2023-11-21T05:10:50;93133.78;;;4.12;100.00
10466;BME280;5280;42.600;23.556;2023-11-21T05:13:18;93179.63;;;4.48;100.00
10466;BME280;5280;42.600;23.556;2023-11-21T05:15:47;93127.63;;;4.13;100.00
10466;BME280;5280;42.600;23.556;2023-11-21T05:18:13;93176.16;;;4.47;100.00
10466;BME280;5280;42.600;23.556;2023-11-21T05:20:40;93151.91;;;4.29;100.00
10466;BME280;5280;42.600;23.556;2023-11-21T05:23:07;93175.31;;;4.47;100.00
10466;BME280;5280;42.600;23.556;2023-11-21T05:25:34;93166.53;;;4.48;100.00
10466;BME280;5280;42.600;23.556;2023-11-21T05:28:01;93162.16;;;4.48;100.00
10466;BME280;5280;42.600;23.556;2023-11-21T05:30:29;93158.78;;;4.46;100.00
10466;BME280;5280;42.600;23.556;2023-11-21T05:32:57;93162.81;;;4.52;100.00
10466;BME280;5280;42.600;23.556;2023-11-21T05:35:24;93072.09;;;3.94;100.00
10466;BME280;5280;42.600;23.556;2023-11-21T05:37:52;93164.50;;;4.53;100.00
10466;BME280;5280;42.600;23.556;2023-11-21T05:40:18;93157.16;;;4.44;100.00
10466;BME280;5280;42.600;23.556;2023-11-21T05:42:47;93157.72;;;4.34;100.00
10466;BME280;5280;42.600;23.556;2023-11-21T05:45:14;93172.06;;;4.43;100.00
10466;BME280;5280;42.600;23.556;2023-11-21T05:47:43;93156.03;;;4.33;100.00
10466;BME280;5280;42.600;23.556;2023-11-21T05:50:14;93178.50;;;4.52;100.00
10466;BME280;5280;42.600;23.556;2023-11-21T05:52:41;93178.66;;;4.49;100.00
10466;BME280;5280;42.600;23.556;2023-11-21T05:55:08;93160.16;;;4.38;100.00
10466;BME280;5280;42.600;23.556;2023-11-21T05:57:36;93180.56;;;4.47;100.00
10466;BME280;5280;42.600;23.556;2023-11-21T06:00:04;93180.84;;;4.56;100.00
10466;BME280;5280;42.600;23.556;2023-11-21T06:02:37;93181.50;;;4.60;100.00
10466;BME280;5280;42.600;23.556;2023-11-21T06:05:05;93085.38;;;4.05;100.00
10466;BME280;5280;42.600;23.556;2023-11-21T06:07:33;93172.91;;;4.58;100.00
10466;BME280;5280;42.600;23.556;2023-11-21T06:10:01;93180.75;;;4.58;100.00
10466;BME280;5280;42.600;23.556;2023-11-21T06:12:28;93164.84;;;4.47;100.00
10466;BME280;5280;42.600;23.556;2023-11-21T06:14:55;93184.88;;;4.62;100.00
10466;BME280;5280;42.600;23.556;2023-11-21T06:17:22;93185.53;;;4.65;100.00
10466;BME280;5280;42.600;23.556;2023-11-21T06:19:50;93126.59;;;4.30;100.00
10466;BME280;5280;42.600;23.556;2023-11-21T06:22:18;93183.19;;;4.75;100.00
10466;BME280;5280;42.600;23.556;2023-11-21T06:24:46;93185.72;;;4.76;100.00
10466;BME280;5280;42.600;23.556;2023-11-21T06:27:13;93156.66;;;4.53;100.00
10466;BME280;5280;42.600;23.556;2023-11-21T06:29:41;93199.81;;;4.74;100.00
10466;BME280;5280;42.600;23.556;2023-11-21T06:32:08;93196.13;;;4.78;100.00
10466;BME280;5280;42.600;23.556;2023-11-21T06:34:35;93184.03;;;4.75;100.00
10466;BME280;5280;42.600;23.556;2023-11-21T06:37:02;93196.69;;;4.83;100.00
10466;BME280;5280;42.600;23.556;2023-11-21T06:39:29;93185.44;;;4.81;100.00
10466;BME280;5280;42.600;23.556;2023-11-21T06:41:57;93210.88;;;4.93;100.00
10466;BME280;5280;42.600;23.556;2023-11-21T06:44:25;93212.56;;;4.94;100.00
10466;BME280;5280;42.600;23.556;2023-11-21T06:46:52;93204.13;;;5.03;100.00
10466;BME280;5280;42.600;23.556;2023-11-21T06:49:19;93203.03;;;5.07;100.00
10466;BME280;5280;42.600;23.556;2023-11-21T06:51:46;93214.94;;;5.13;100.00
10466;BME280;5280;42.600;23.556;2023-11-21T06:54:13;93200.13;;;5.12;100.00
10466;BME280;5280;42.600;23.556;2023-11-21T06:56:42;93209.00;;;5.24;100.00
10466;BME280;5280;42.600;23.556;2023-11-21T06:59:10;93204.81;;;5.21;100.00
10466;BME280;5280;42.600;23.556;2023-11-21T07:01:37;93215.34;;;5.34;100.00
10466;BME280;5280;42.600;23.556;2023-11-21T07:05:49;93218.53;;;5.39;100.00
10466;BME280;5280;42.600;23.556;2023-11-21T07:07:08;93206.84;;;5.44;100.00
10466;BME280;5280;42.600;23.556;2023-11-21T07:09:35;93202.06;;;5.51;100.00
10466;BME280;5280;42.600;23.556;2023-11-21T07:12:02;93137.00;;;5.16;100.00
10466;BME280;5280;42.600;23.556;2023-11-21T07:14:33;93191.19;;;5.57;100.00
10466;BME280;5280;42.600;23.556;2023-11-21T07:17:00;93178.13;;;5.43;100.00
10466;BME280;5280;42.600;23.556;2023-11-21T07:19:26;93204.25;;;5.71;100.00
10466;BME280;5280;42.600;23.556;2023-11-21T07:21:54;93198.63;;;5.77;100.00
10466;BME280;5280;42.600;23.556;2023-11-21T07:24:21;93199.19;;;5.82;100.00
10466;BME280;5280;42.600;23.556;2023-11-21T07:26:48;93175.13;;;5.76;100.00
10466;BME280;5280;42.600;23.556;2023-11-21T07:29:15;93122.38;;;5.53;100.00
10466;BME280;5280;42.600;23.556;2023-11-21T07:31:43;93173.16;;;5.79;100.00
10466;BME280;5280;42.600;23.556;2023-11-21T07:34:10;93139.88;;;5.67;100.00
10466;BME280;5280;42.600;23.556;2023-11-21T07:36:37;93114.66;;;5.52;100.00
10466;BME280;5280;42.600;23.556;2023-11-21T07:39:04;93161.31;;;5.86;100.00
10466;BME280;5280;42.600;23.556;2023-11-21T07:41:34;93199.66;;;6.16;100.00
10466;BME280;5280;42.600;23.556;2023-11-21T07:44:01;93104.69;;;5.57;100.00
10466;BME280;5280;42.600;23.556;2023-11-21T07:46:28;93169.41;;;6.10;100.00
10466;BME280;5280;42.600;23.556;2023-11-21T07:48:56;93182.13;;;6.16;100.00
10466;BME280;5280;42.600;23.556;2023-11-21T07:51:23;93193.78;;;6.25;100.00
10466;BME280;5280;42.600;23.556;2023-11-21T07:53:50;93123.22;;;5.81;100.00
10466;BME280;5280;42.600;23.556;2023-11-21T07:56:17;93186.69;;;6.27;100.00
10466;BME280;5280;42.600;23.556;2023-11-21T07:58:44;93182.28;;;6.27;100.00
10466;BME280;5280;42.600;23.556;2023-11-21T08:01:11;93166.25;;;6.05;100.00
10466;BME280;5280;42.600;23.556;2023-11-21T08:03:38;93194.19;;;6.19;100.00
10466;BME280;5280;42.600;23.556;2023-11-21T08:06:07;93136.41;;;5.93;100.00
10466;BME280;5280;42.600;23.556;2023-11-21T08:08:34;93170.94;;;6.27;100.00
10466;BME280;5280;42.600;23.556;2023-11-21T08:11:02;93173.88;;;6.35;100.00
10466;BME280;5280;42.600;23.556;2023-11-21T08:13:33;93085.28;;;5.86;100.00
10466;BME280;5280;42.600;23.556;2023-11-21T08:16:00;93157.81;;;6.39;100.00
10466;BME280;5280;42.600;23.556;2023-11-21T08:18:30;93182.41;;;6.51;100.00
10466;BME280;5280;42.600;23.556;2023-11-21T08:21:01;93170.63;;;6.44;100.00
10466;BME280;5280;42.600;23.556;2023-11-21T08:23:40;93139.22;;;6.30;100.00
10466;BME280;5280;42.600;23.556;2023-11-21T08:26:07;93140.28;;;6.27;100.00
10466;BME280;5280;42.600;23.556;2023-11-21T08:28:34;93128.81;;;6.16;100.00
10466;BME280;5280;42.600;23.556;2023-11-21T08:31:04;93190.28;;;6.51;100.00
10466;BME280;5280;42.600;23.556;2023-11-21T08:33:32;93140.78;;;6.20;100.00
10466;BME280;5280;42.600;23.556;2023-11-21T08:35:59;93149.50;;;6.33;100.00
10466;BME280;5280;42.600;23.556;2023-11-21T08:38:27;93131.66;;;6.25;100.00
10466;BME280;5280;42.600;23.556;2023-11-21T08:41:05;93129.88;;;6.26;100.00
10466;BME280;5280;42.600;23.556;2023-11-21T08:43:50;93135.88;;;6.40;100.00
10466;BME280;5280;42.600;23.556;2023-11-21T08:46:19;93145.53;;;6.53;100.00
10466;BME280;5280;42.600;23.556;2023-11-21T08:48:46;93116.53;;;6.29;100.00
10466;BME280;5280;42.600;23.556;2023-11-21T08:51:13;93116.44;;;6.43;100.00
10466;BME280;5280;42.600;23.556;2023-11-21T08:53:45;93155.44;;;6.74;100.00
10466;BME280;5280;42.600;23.556;2023-11-21T08:56:15;93173.31;;;6.95;100.00
10466;BME280;5280;42.600;23.556;2023-11-21T08:58:44;93064.94;;;6.42;100.00
10466;BME280;5280;42.600;23.556;2023-11-21T09:01:12;93127.91;;;6.92;100.00
10466;BME280;5280;42.600;23.556;2023-11-21T09:03:39;93160.66;;;7.25;100.00
10466;BME280;5280;42.600;23.556;2023-11-21T09:06:07;93130.34;;;6.96;100.00
10466;BME280;5280;42.600;23.556;2023-11-21T09:08:37;93127.47;;;6.99;100.00
10466;BME280;5280;42.600;23.556;2023-11-21T09:11:05;93133.78;;;7.09;100.00
10466;BME280;5280;42.600;23.556;2023-11-21T09:13:41;93153.53;;;7.27;100.00
10466;BME280;5280;42.600;23.556;2023-11-21T09:16:08;93104.53;;;7.13;100.00
10466;BME280;5280;42.600;23.556;2023-11-21T09:18:36;93130.25;;;7.33;100.00
10466;BME280;5280;42.600;23.556;2023-11-21T09:21:03;93067.38;;;7.07;100.00
10466;BME280;5280;42.600;23.556;2023-11-21T09:23:38;93049.81;;;7.07;100.00
10466;BME280;5280;42.600;23.556;2023-11-21T09:26:05;93086.22;;;7.37;100.00
10466;BME280;5280;42.600;23.556;2023-11-21T09:28:32;93081.31;;;7.56;100.00
10466;BME280;5280;42.600;23.556;2023-11-21T09:31:01;92992.72;;;7.09;100.00
10466;BME280;5280;42.600;23.556;2023-11-21T09:33:31;93067.16;;;7.70;100.00
10466;BME280;5280;42.600;23.556;2023-11-21T09:35:59;93037.72;;;7.65;100.00
10466;BME280;5280;42.600;23.556;2023-11-21T09:38:26;92989.22;;;7.45;100.00
10466;BME280;5280;42.600;23.556;2023-11-21T09:40:54;92982.22;;;7.57;100.00
10466;BME280;5280;42.600;23.556;2023-11-21T09:43:25;93033.31;;;8.00;100.00
10466;BME280;5280;42.600;23.556;2023-11-21T09:45:58;93022.28;;;7.95;100.00
10466;BME280;5280;42.600;23.556;2023-11-21T09:48:47;93039.91;;;8.17;100.00
10466;BME280;5280;42.600;23.556;2023-11-21T09:51:29;93052.13;;;8.18;100.00
10466;BME280;5280;42.600;23.556;2023-11-21T09:53:59;93006.41;;;7.97;100.00
10466;BME280;5280;42.600;23.556;2023-11-21T09:56:32;92997.53;;;7.98;100.00
10466;BME280;5280;42.600;23.556;2023-11-21T09:59:01;92982.84;;;8.06;100.00
10466;BME280;5280;42.600;23.556;2023-11-21T10:01:37;93001.38;;;8.05;100.00
10466;BME280;5280;42.600;23.556;2023-11-21T10:04:08;92962.38;;;7.99;100.00
10466;BME280;5280;42.600;23.556;2023-11-21T10:06:38;92991.72;;;8.28;100.00
10466;BME280;5280;42.600;23.556;2023-11-21T10:09:07;92949.69;;;8.04;100.00
10466;BME280;5280;42.600;23.556;2023-11-21T10:11:39;92937.97;;;8.08;100.00
10466;BME280;5280;42.600;23.556;2023-11-21T10:14:08;92883.91;;;7.93;100.00
10466;BME280;5280;42.600;23.556;2023-11-21T10:16:57;92910.34;;;8.13;100.00
10466;BME280;5280;42.600;23.556;2023-11-21T10:19:26;92939.97;;;8.50;100.00
10466;BME280;5280;42.600;23.556;2023-11-21T10:21:54;92901.41;;;8.38;100.00
10466;BME280;5280;42.600;23.556;2023-11-21T10:24:23;92958.13;;;8.87;100.00
10466;BME280;5280;42.600;23.556;2023-11-21T10:26:53;92977.75;;;9.05;100.00
10466;BME280;5280;42.600;23.556;2023-11-21T10:29:20;92971.75;;;9.03;100.00
10466;BME280;5280;42.600;23.556;2023-11-21T10:31:49;92987.44;;;9.16;100.00
10466;BME280;5280;42.600;23.556;2023-11-21T10:34:18;92927.84;;;8.81;100.00
10466;BME280;5280;42.600;23.556;2023-11-21T10:36:47;92926.97;;;8.92;100.00
10466;BME280;5280;42.600;23.556;2023-11-21T10:39:14;92974.34;;;9.25;100.00
10466;BME280;5280;42.600;23.556;2023-11-21T10:41:44;92970.03;;;9.24;100.00
10466;BME280;5280;42.600;23.556;2023-11-21T10:44:14;92918.94;;;8.93;100.00
10466;BME280;5280;42.600;23.556;2023-11-21T10:46:46;92938.44;;;9.02;100.00
10466;BME280;5280;42.600;23.556;2023-11-21T10:49:17;92968.13;;;9.26;100.00
10466;BME280;5280;42.600;23.556;2023-11-21T10:51:48;92947.03;;;9.26;100.00
10466;BME280;5280;42.600;23.556;2023-11-21T10:54:18;92935.03;;;9.22;100.00
10466;BME280;5280;42.600;23.556;2023-11-21T10:56:45;92896.53;;;8.99;100.00
10466;BME280;5280;42.600;23.556;2023-11-21T10:59:13;92904.06;;;9.03;100.00
10466;BME280;5280;42.600;23.556;2023-11-21T11:01:42;92949.22;;;9.42;100.00
10466;BME280;5280;42.600;23.556;2023-11-21T11:04:12;92874.03;;;8.95;100.00
10466;BME280;5280;42.600;23.556;2023-11-21T11:06:42;92936.19;;;9.40;100.00
10466;BME280;5280;42.600;23.556;2023-11-21T11:09:13;92951.91;;;9.63;100.00
10466;BME280;5280;42.600;23.556;2023-11-21T11:11:42;92919.03;;;9.46;100.00
10466;BME280;5280;42.600;23.556;2023-11-21T11:14:11;92941.44;;;9.72;100.00
10466;BME280;5280;42.600;23.556;2023-11-21T11:16:39;92897.28;;;9.54;100.00
10466;BME280;5280;42.600;23.556;2023-11-21T11:19:08;92938.88;;;9.82;100.00
10466;BME280;5280;42.600;23.556;2023-11-21T11:21:44;92939.19;;;9.88;100.00
10466;BME280;5280;42.600;23.556;2023-11-21T11:24:29;92938.13;;;9.91;100.00
10466;BME280;5280;42.600;23.556;2023-11-21T11:27:14;92939.47;;;9.85;100.00
10466;BME280;5280;42.600;23.556;2023-11-21T11:29:50;92926.34;;;9.95;100.00
10466;BME280;5280;42.600;23.556;2023-11-21T11:32:31;92928.69;;;9.98;100.00
10466;BME280;5280;42.600;23.556;2023-11-21T11:35:07;92852.13;;;9.68;100.00
10466;BME280;5280;42.600;23.556;2023-11-21T11:37:37;92836.56;;;9.65;100.00
10466;BME280;5280;42.600;23.556;2023-11-21T11:40:08;92845.81;;;9.80;100.00
10466;BME280;5280;42.600;23.556;2023-11-21T11:42:37;92894.28;;;10.20;100.00
10466;BME280;5280;42.600;23.556;2023-11-21T11:45:17;92891.09;;;10.26;100.00
10466;BME280;5280;42.600;23.556;2023-11-21T11:47:47;92831.56;;;9.92;100.00
10466;BME280;5280;42.600;23.556;2023-11-21T11:50:14;92848.16;;;10.04;100.00
10466;BME280;5280;42.600;23.556;2023-11-21T11:52:43;92800.31;;;9.97;100.00
10466;BME280;5280;42.600;23.556;2023-11-21T11:55:13;92825.63;;;10.20;100.00
10466;BME280;5280;42.600;23.556;2023-11-21T11:57:45;92824.50;;;10.23;100.00
10466;BME280;5280;42.600;23.556;2023-11-21T12:00:16;92862.00;;;10.47;100.00
10466;BME280;5280;42.600;23.556;2023-11-21T12:02:47;92872.72;;;10.46;100.00
10466;BME280;5280;42.600;23.556;2023-11-21T12:05:17;92816.53;;;10.13;100.00
10466;BME280;5280;42.600;23.556;2023-11-21T12:07:50;92889.00;;;10.51;100.00
10466;BME280;5280;42.600;23.556;2023-11-21T12:10:21;92834.88;;;10.15;100.00
10466;BME280;5280;42.600;23.556;2023-11-21T12:12:51;92844.16;;;10.09;100.00
10466;BME280;5280;42.600;23.556;2023-11-21T12:15:19;92849.88;;;10.14;100.00
10466;BME280;5280;42.600;23.556;2023-11-21T12:17:48;92863.03;;;10.25;100.00
10466;BME280;5280;42.600;23.556;2023-11-21T12:20:18;92840.06;;;9.96;100.00
10466;BME280;5280;42.600;23.556;2023-11-21T12:22:47;92886.75;;;10.16;100.00
10466;BME280;5280;42.600;23.556;2023-11-21T12:25:15;92857.91;;;9.82;100.00
10466;BME280;5280;42.600;23.556;2023-11-21T12:27:46;92906.91;;;9.96;100.00
10466;BME280;5280;42.600;23.556;2023-11-21T12:30:16;92900.97;;;9.83;100.00
10466;BME280;5280;42.600;23.556;2023-11-21T12:32:44;92896.91;;;9.79;100.00
10466;BME280;5280;42.600;23.556;2023-11-21T12:35:12;92885.50;;;9.78;100.00
10466;BME280;5280;42.600;23.556;2023-11-21T12:37:41;92902.47;;;9.76;100.00
10466;BME280;5280;42.600;23.556;2023-11-21T12:40:09;92906.91;;;9.75;100.00
10466;BME280;5280;42.600;23.556;2023-11-21T12:42:41;92919.28;;;9.64;100.00
10466;BME280;5280;42.600;23.556;2023-11-21T12:45:18;92910.31;;;9.34;100.00
10466;BME280;5280;42.600;23.556;2023-11-21T12:47:47;92894.88;;;9.30;100.00
10466;BME280;5280;42.600;23.556;2023-11-21T12:50:14;92923.66;;;9.54;100.00
10466;BME280;5280;42.600;23.556;2023-11-21T12:52:42;92878.03;;;9.21;100.00
10466;BME280;5280;42.600;23.556;2023-11-21T12:55:16;92918.88;;;9.47;100.00
10466;BME280;5280;42.600;23.556;2023-11-21T12:57:44;92851.19;;;9.16;100.00
10466;BME280;5280;42.600;23.556;2023-11-21T13:00:16;92898.13;;;9.54;100.00
10466;BME280;5280;42.600;23.556;2023-11-21T13:02:53;92831.13;;;9.25;100.00
10466;BME280;5280;42.600;23.556;2023-11-21T13:05:29;92882.53;;;9.72;100.00
10466;BME280;5280;42.600;23.556;2023-11-21T13:08:02;92864.34;;;9.69;100.00